Time;durP1;ratioP1;P1;durP2;ratioP2;P2;SDS_P1;SDS_P2;PMS_P1;PMS_P2;Temp;Humidity;BMP_temperature;BMP_pressure;BME280_temperature;BME280_humidity;BME280_pressure;Samples;Min_cycle;Max_cycle;Signal;HPM_P1;HPM_P2
2021/11/19 00:02:08;;;;;;;;;34.25;30.75;;;;;13.94;78.13;101808.28;146601;628;47020;-77
2021/11/19 00:04:43;;;;;;;;;40.00;32.75;;;;;13.91;78.28;101795.97;146606;635;46021;-79
2021/11/19 00:07:17;;;;;;;;;41.25;31.25;;;;;13.88;78.60;101798.41;146601;576;46016;-74
2021/11/19 00:09:51;;;;;;;;;37.00;30.25;;;;;13.86;78.93;101797.41;146602;642;46020;-80
2021/11/19 00:12:25;;;;;;;;;43.25;33.00;;;;;13.84;78.94;101799.06;146601;611;47010;-81
2021/11/19 00:14:59;;;;;;;;;28.75;28.75;;;;;13.36;78.98;101718.25;146607;569;45020;-82
2021/11/19 00:17:32;;;;;;;;;35.00;30.25;;;;;13.83;78.70;101802.44;146603;565;46016;-81
2021/11/19 00:20:10;;;;;;;;;34.50;28.75;;;;;13.80;78.85;101799.69;146605;578;46021;-77
2021/11/19 00:22:44;;;;;;;;;36.50;30.75;;;;;13.79;79.71;101796.19;146603;573;46016;-78
2021/11/19 00:25:18;;;;;;;;;35.75;31.00;;;;;13.76;80.08;101796.00;146603;579;46020;-75
2021/11/19 00:27:52;;;;;;;;;41.00;32.25;;;;;13.68;80.14;101788.59;146606;602;46010;-79
2021/11/19 00:30:28;;;;;;;;;39.25;31.75;;;;;13.58;81.06;101787.16;146604;587;46020;-79
2021/11/19 00:33:02;;;;;;;;;44.75;34.75;;;;;13.51;81.51;101779.81;146605;672;46016;-78
2021/11/19 00:35:42;;;;;;;;;37.75;32.00;;;;;13.42;82.00;101777.59;146603;606;45023;-75
2021/11/19 00:38:18;;;;;;;;;34.25;30.00;;;;;12.54;79.89;101619.81;146603;618;46016;-77
2021/11/19 00:40:55;;;;;;;;;49.00;37.25;;;;;13.37;79.77;101769.53;146603;608;46020;-70
2021/11/19 00:43:29;;;;;;;;;38.00;32.75;;;;;13.42;79.76;101766.28;146604;599;46010;-73
2021/11/19 00:46:04;;;;;;;;;43.00;32.50;;;;;13.44;79.81;101768.16;146606;570;45020;-71
2021/11/19 00:48:40;;;;;;;;;28.75;23.50;;;;;13.47;77.62;101762.22;146603;609;46011;-71
2021/11/19 00:51:23;;;;;;;;;24.75;23.00;;;;;13.48;76.69;101751.87;146607;574;46010;-71
2021/11/19 00:54:00;;;;;;;;;29.00;23.75;;;;;13.53;75.83;101759.97;146604;605;46016;-72
2021/11/19 00:56:39;;;;;;;;;28.50;28.00;;;;;13.55;76.03;101747.91;146605;712;47010;-73
2021/11/19 00:59:16;;;;;;;;;24.00;21.00;;;;;13.65;76.23;101757.16;146603;635;46010;-71
2021/11/19 01:01:55;;;;;;;;;20.75;19.25;;;;;13.70;75.57;101764.38;146602;571;46020;-75
2021/11/19 01:04:30;;;;;;;;;31.50;23.75;;;;;13.76;76.95;101767.34;146601;597;46016;-75
2021/11/19 01:07:04;;;;;;;;;39.25;32.50;;;;;13.78;77.11;101759.63;146606;584;46008;-74
2021/11/19 01:09:42;;;;;;;;;39.50;34.00;;;;;13.78;78.01;101759.63;146603;634;46016;-75
2021/11/19 01:12:20;;;;;;;;;37.75;32.25;;;;;13.75;77.66;101749.03;146605;635;46020;-76
2021/11/19 01:15:20;;;;;;;;;41.25;32.00;;;;;13.73;77.80;101754.12;146605;692;46016;-76
2021/11/19 01:18:42;;;;;;;;;53.00;39.25;;;;;13.26;77.63;101674.25;146606;573;46021;-74
2021/11/19 01:21:26;;;;;;;;;43.50;36.25;;;;;13.70;78.26;101751.34;146601;586;46016;-77
2021/11/19 01:24:01;;;;;;;;;47.00;36.25;;;;;13.63;77.81;101754.44;146606;572;46020;-75
2021/11/19 01:26:37;;;;;;;;;38.50;33.00;;;;;13.63;77.90;101763.16;146604;599;46010;-76
2021/11/19 01:29:15;;;;;;;;;39.75;33.25;;;;;13.65;78.15;101765.87;146604;577;46008;-74
2021/11/19 01:31:57;;;;;;;;;45.25;35.00;;;;;13.65;78.27;101768.47;146600;577;47013;-76
2021/11/19 01:34:32;;;;;;;;;43.50;35.25;;;;;13.19;78.35;101698.13;146606;586;47010;-76
2021/11/19 01:37:07;;;;;;;;;39.25;33.00;;;;;13.60;78.69;101764.69;146601;619;46016;-77
2021/11/19 01:39:42;;;;;;;;;36.25;31.75;;;;;13.55;78.35;101771.34;146605;619;46912;-76
2021/11/19 01:42:39;;;;;;;;;36.75;31.25;;;;;13.54;78.28;101762.66;146603;625;46016;-77
2021/11/19 01:45:21;;;;;;;;;33.00;31.00;;;;;13.54;78.64;101765.25;146605;575;46020;-79
2021/11/19 01:47:58;;;;;;;;;33.00;29.50;;;;;13.54;78.11;101762.66;146605;570;46017;-74
2021/11/19 01:50:38;;;;;;;;;37.00;30.00;;;;;13.56;78.69;101760.16;146603;579;46020;-76
2021/11/19 01:53:22;;;;;;;;;38.50;31.00;;;;;13.53;78.23;101759.97;146604;602;46010;-70
2021/11/19 01:56:08;;;;;;;;;34.75;26.50;;;;;13.50;78.59;101755.47;146604;576;46020;-71
2021/11/19 01:58:50;;;;;;;;;30.50;25.75;;;;;13.52;78.83;101755.56;146601;604;47020;-72
2021/11/19 02:01:50;;;;;;;;;34.00;29.00;;;;;13.51;78.44;101757.25;146604;611;46021;-71
2021/11/19 02:04:31;;;;;;;;;26.25;24.00;;;;;13.50;78.77;101755.47;146602;583;46016;-71
2021/11/19 02:07:16;;;;;;;;;27.00;22.75;;;;;13.50;78.85;101749.38;146606;571;46008;-72
2021/11/19 02:10:04;;;;;;;;;26.25;22.75;;;;;13.51;78.54;101753.78;146602;610;46017;-71
2021/11/19 02:13:14;;;;;;;;;34.75;29.75;;;;;13.51;78.16;101753.78;146602;647;46020;-72
2021/11/19 02:15:57;;;;;;;;;24.00;21.75;;;;;13.53;78.08;101745.22;146603;599;46016;-71
2021/11/19 02:18:49;;;;;;;;;31.25;26.50;;;;;13.57;77.49;101751.50;146605;573;46008;-72
2021/11/19 02:21:28;;;;;;;;;23.50;18.25;;;;;13.58;78.48;101738.56;146604;615;46029;-72
2021/11/19 02:24:27;;;;;;;;;31.50;28.75;;;;;13.29;77.86;101691.75;146606;596;46009;-70
2021/11/19 02:27:11;;;;;;;;;33.00;28.50;;;;;13.57;77.84;101720.22;146604;569;47010;-71
2021/11/19 02:29:53;;;;;;;;;31.50;25.50;;;;;13.57;76.08;101731.53;146606;579;46025;-76
2021/11/19 02:32:33;;;;;;;;;26.50;25.00;;;;;13.60;74.85;101726.50;146604;626;47011;-76
2021/11/19 02:35:10;;;;;;;;;32.00;26.75;;;;;13.64;74.65;101727.56;146605;569;46020;-79
2021/11/19 02:37:52;;;;;;;;;30.50;27.25;;;;;13.65;75.02;101720.66;146603;750;46016;-85
2021/11/19 02:40:30;;;;;;;;;29.25;26.50;;;;;13.68;75.05;101721.72;146606;640;46021;-79
2021/11/19 02:43:09;;;;;;;;;34.00;29.25;;;;;13.71;74.47;101732.31;146605;748;46010;-70
2021/11/19 02:45:47;;;;;;;;;22.75;19.25;;;;;12.65;73.23;101536.34;146606;582;46025;-70
2021/11/19 02:48:24;;;;;;;;;18.25;16.75;;;;;13.73;71.61;101720.25;146603;597;46016;-70
2021/11/19 02:51:00;;;;;;;;;21.75;21.00;;;;;13.76;70.81;101706.50;146605;588;46020;-70
2021/11/19 02:53:35;;;;;;;;;20.00;16.25;;;;;13.79;70.49;101712.75;146601;604;46016;-70
2021/11/19 02:56:10;;;;;;;;;23.50;18.25;;;;;13.84;69.95;101694.78;146605;687;46020;-70
2021/11/19 02:58:49;;;;;;;;;19.50;18.50;;;;;13.84;69.29;101697.38;146604;681;46018;-71
2021/11/19 03:01:41;;;;;;;;;21.25;18.00;;;;;13.87;69.37;101700.16;146606;708;46021;-70
2021/11/19 03:04:24;;;;;;;;;20.25;18.25;;;;;13.90;70.82;101704.63;146601;618;46016;-70
2021/11/19 03:07:00;;;;;;;;;15.75;15.25;;;;;13.93;71.04;101702.19;146604;569;47010;-70
2021/11/19 03:09:39;;;;;;;;;19.75;17.25;;;;;13.95;71.30;101700.53;146603;602;46016;-70
2021/11/19 03:12:16;;;;;;;;;17.50;15.50;;;;;13.97;71.34;101697.22;146605;599;46020;-70
2021/11/19 03:14:53;;;;;;;;;19.75;15.50;;;;;13.99;71.47;101694.69;146603;583;47010;-73
2021/11/19 03:17:28;;;;;;;;;19.00;15.75;;;;;14.01;71.77;101703.47;146605;571;46021;-71
2021/11/19 03:20:01;;;;;;;;;20.00;16.75;;;;;14.02;71.67;101703.56;146602;661;46016;-73
2021/11/19 03:22:35;;;;;;;;;20.25;16.50;;;;;14.03;71.90;101710.56;146604;679;46021;-73
2021/11/19 03:25:12;;;;;;;;;22.25;17.75;;;;;14.05;72.12;101708.97;146602;606;46016;-78
2021/11/19 03:27:48;;;;;;;;;24.50;21.75;;;;;14.07;72.62;101703.81;146606;637;46020;-75
2021/11/19 03:30:24;;;;;;;;;22.50;20.50;;;;;14.08;72.94;101705.59;146605;636;46017;-78
2021/11/19 03:32:59;;;;;;;;;23.25;21.00;;;;;14.07;72.99;101698.59;146606;610;46020;-76
2021/11/19 03:35:35;;;;;;;;;18.25;16.25;;;;;14.07;72.24;101702.09;146603;601;46016;-75
2021/11/19 03:38:09;;;;;;;;;21.75;18.25;;;;;14.09;71.66;101710.91;146604;589;46021;-75
2021/11/19 03:40:45;;;;;;;;;22.75;22.75;;;;;14.04;70.88;101704.53;146600;577;46016;-78
2021/11/19 03:43:27;;;;;;;;;42.25;35.00;;;;;14.02;70.90;101707.91;146602;563;46020;-78
2021/11/19 03:46:05;;;;;;;;;42.75;35.50;;;;;14.03;71.84;101707.06;146602;577;47018;-79
2021/11/19 03:48:41;;;;;;;;;19.00;17.75;;;;;14.02;71.53;101705.28;146608;640;46008;-72
2021/11/19 03:51:33;;;;;;;;;19.00;16.50;;;;;14.05;71.20;101701.13;146599;569;46016;-76
2021/11/19 03:54:10;;;;;;;;;18.25;16.00;;;;;14.04;69.34;101701.03;146605;617;46020;-76
2021/11/19 03:56:45;;;;;;;;;22.25;18.50;;;;;14.04;69.67;101696.72;146601;582;46016;-72
2021/11/19 03:59:19;;;;;;;;;18.25;15.50;;;;;14.05;69.75;101695.91;146605;651;46020;-72
2021/11/19 04:01:55;;;;;;;;;20.75;20.75;;;;;14.03;70.28;101689.72;146603;662;46016;-75
2021/11/19 04:04:33;;;;;;;;;21.25;18.00;;;;;14.07;70.09;101696.88;146603;613;46020;-73
2021/11/19 04:07:09;;;;;;;;;22.75;20.00;;;;;14.08;70.03;101700.38;146603;605;46017;-73
2021/11/19 04:09:44;;;;;;;;;19.75;16.00;;;;;14.07;68.07;101699.47;146603;602;47008;-73
2021/11/19 04:12:23;;;;;;;;;21.25;19.50;;;;;14.09;69.42;101710.00;146603;608;46016;-79
2021/11/19 04:14:57;;;;;;;;;21.25;16.75;;;;;14.10;69.65;101703.97;146606;608;46021;-74
2021/11/19 04:17:31;;;;;;;;;18.75;16.50;;;;;14.11;68.52;101705.75;146601;582;46016;-75
2021/11/19 04:20:05;;;;;;;;;19.00;17.00;;;;;14.15;69.40;101712.06;146607;613;46020;-71
2021/11/19 04:22:39;;;;;;;;;26.00;23.00;;;;;14.19;69.99;101716.59;146602;628;46016;-70
2021/11/19 04:25:16;;;;;;;;;20.50;18.50;;;;;14.18;70.01;101712.22;146603;570;46021;-70
2021/11/19 04:27:51;;;;;;;;;21.25;19.00;;;;;14.20;71.42;101710.56;146601;566;46016;-72
2021/11/19 04:30:33;;;;;;;;;16.75;15.75;;;;;14.21;72.05;101717.59;146605;574;46020;-71
2021/11/19 04:33:09;;;;;;;;;24.00;22.00;;;;;14.21;72.21;101725.41;146605;576;46017;-71
2021/11/19 04:35:43;;;;;;;;;28.00;24.25;;;;;14.19;72.69;101721.81;146604;597;46012;-70
2021/11/19 04:38:18;;;;;;;;;22.75;18.25;;;;;14.15;73.54;101723.38;146601;569;46016;-70
2021/11/19 04:40:53;;;;;;;;;32.75;29.25;;;;;14.10;73.85;101725.72;146604;636;46021;-70
2021/11/19 04:43:29;;;;;;;;;21.25;18.50;;;;;14.02;74.51;101724.44;146604;573;46010;-71
2021/11/19 04:46:03;;;;;;;;;24.00;22.00;;;;;13.96;74.41;101734.53;146603;625;46020;-71
2021/11/19 04:48:38;;;;;;;;;20.75;19.00;;;;;13.91;72.85;101728.16;146604;668;47010;-71
2021/11/19 04:51:19;;;;;;;;;19.25;19.00;;;;;13.85;72.48;101731.34;146605;579;46020;-71
2021/11/19 04:53:57;;;;;;;;;20.75;19.50;;;;;13.79;72.79;101728.41;146603;717;46031;-73
2021/11/19 04:56:31;;;;;;;;;22.25;20.50;;;;;13.74;73.56;101740.31;146604;589;46021;-70
2021/11/19 04:59:06;;;;;;;;;21.75;20.00;;;;;13.67;74.17;101737.28;146603;563;46016;-72
2021/11/19 05:01:43;;;;;;;;;18.00;17.25;;;;;13.57;74.63;101741.09;146605;585;46008;-72
2021/11/19 05:04:18;;;;;;;;;25.50;22.50;;;;;13.46;75.44;101742.19;146601;589;46031;-70
2021/11/19 05:06:52;;;;;;;;;26.75;22.25;;;;;13.36;75.96;101736.50;146604;649;46008;-72
2021/11/19 05:09:29;;;;;;;;;33.50;30.50;;;;;13.29;76.41;101729.13;146605;579;46028;-73
2021/11/19 05:12:31;;;;;;;;;29.50;25.00;;;;;13.21;76.50;101725.16;146605;578;46020;-72
2021/11/19 05:15:08;;;;;;;;;28.25;24.50;;;;;13.12;76.95;101720.34;146606;641;45028;-72
2021/11/19 05:17:43;;;;;;;;;21.75;19.75;;;;;13.08;76.97;101733.06;146604;577;46021;-72
2021/11/19 05:20:22;;;;;;;;;23.25;21.75;;;;;13.02;76.77;101731.03;146605;635;46016;-72
2021/11/19 05:22:56;;;;;;;;;19.00;15.75;;;;;13.01;76.67;101730.94;146605;603;47008;-72
2021/11/19 05:25:34;;;;;;;;;26.50;21.00;;;;;13.04;76.94;101742.41;146603;622;46016;-72
2021/11/19 05:28:08;;;;;;;;;23.50;20.00;;;;;13.07;76.53;101744.31;146605;571;46008;-72
2021/11/19 05:30:43;;;;;;;;;24.25;18.75;;;;;13.11;76.75;101743.66;146604;668;47011;-72
2021/11/19 05:33:20;;;;;;;;;25.00;20.00;;;;;13.11;76.55;101743.66;146606;652;46020;-72
2021/11/19 05:35:54;;;;;;;;;24.50;21.50;;;;;13.12;76.96;101746.38;146604;597;46016;-71
2021/11/19 05:38:29;;;;;;;;;26.50;22.50;;;;;13.12;77.01;101751.59;146604;625;46021;-71
2021/11/19 05:41:04;;;;;;;;;38.75;32.00;;;;;13.13;76.91;101745.56;146603;606;46016;-72
2021/11/19 05:43:40;;;;;;;;;38.50;28.75;;;;;13.14;76.84;101759.47;146605;583;46020;-71
2021/11/19 05:46:16;;;;;;;;;29.50;26.50;;;;;13.16;77.00;101760.47;146604;579;46020;-71
2021/11/19 05:48:51;;;;;;;;;23.75;22.00;;;;;13.21;77.03;101765.91;146606;580;46020;-69
2021/11/19 05:51:28;;;;;;;;;26.25;24.00;;;;;13.23;77.09;101765.19;146602;645;46016;-70
2021/11/19 05:54:02;;;;;;;;;25.75;24.50;;;;;13.27;76.81;101767.22;146601;617;46021;-71
2021/11/19 05:56:36;;;;;;;;;21.25;19.75;;;;;13.30;76.57;101766.47;146602;602;46029;-70
2021/11/19 05:59:12;;;;;;;;;18.00;18.00;;;;;13.31;76.46;101774.41;146605;569;46020;-70
2021/11/19 06:01:46;;;;;;;;;27.25;23.00;;;;;12.36;76.56;101602.31;146602;569;46016;-70
2021/11/19 06:04:20;;;;;;;;;23.00;22.75;;;;;13.38;76.21;101773.03;146605;579;46020;-70
2021/11/19 06:06:54;;;;;;;;;27.50;24.00;;;;;13.44;76.42;101786.41;146603;564;46016;-70
2021/11/19 06:09:30;;;;;;;;;22.75;19.00;;;;;13.47;76.04;101778.75;146608;662;46008;-71
2021/11/19 06:12:11;;;;;;;;;22.50;21.00;;;;;13.53;76.46;101779.09;146605;605;46010;-72
2021/11/19 06:14:52;;;;;;;;;63.50;47.25;;;;;13.62;76.17;101782.22;146604;565;46020;-71
2021/11/19 06:17:32;;;;;;;;;55.25;43.75;;;;;13.69;76.05;101778.25;146603;651;46030;-73
2021/11/19 06:20:34;;;;;;;;;35.25;30.00;;;;;13.78;76.23;101791.78;146603;592;46020;-72
2021/11/19 06:23:18;;;;;;;;;37.25;31.75;;;;;13.85;75.28;101793.91;146602;574;46016;-72
2021/11/19 06:25:52;;;;;;;;;35.25;31.00;;;;;13.90;75.22;101790.69;146606;612;45020;-78
2021/11/19 06:28:34;;;;;;;;;38.75;29.75;;;;;13.94;75.46;101790.03;146601;610;47907;-75
2021/11/19 06:31:08;;;;;;;;;41.50;36.25;;;;;13.21;75.55;101651.31;146605;582;46021;-75
2021/11/19 06:33:42;;;;;;;;;42.25;33.75;;;;;14.01;74.45;101792.13;146606;565;46010;-76
2021/11/19 06:36:17;;;;;;;;;48.00;36.75;;;;;14.00;74.36;101790.34;146605;588;46020;-76
2021/11/19 06:38:53;;;;;;;;;54.25;42.75;;;;;14.00;74.93;101804.28;146604;611;46010;-77
2021/11/19 06:41:27;;;;;;;;;38.75;31.00;;;;;13.96;74.79;101793.63;146604;656;46020;-73
2021/11/19 06:44:01;;;;;;;;;28.00;21.25;;;;;14.00;75.23;101798.19;146602;718;46016;-79
2021/11/19 06:46:35;;;;;;;;;27.25;25.25;;;;;14.01;75.40;101794.75;146606;588;46008;-80
2021/11/19 06:49:11;;;;;;;;;23.75;23.50;;;;;14.05;75.92;101799.34;146600;729;47018;-80
2021/11/19 06:51:45;;;;;;;;;32.50;29.50;;;;;14.09;76.08;101807.41;146605;576;46021;-81
2021/11/19 06:54:19;;;;;;;;;29.25;24.25;;;;;14.15;75.98;101800.72;146604;593;46016;-81
2021/11/19 06:56:54;;;;;;;;;63.00;49.25;;;;;14.19;76.33;101802.69;146606;608;45022;-79
2021/11/19 06:59:28;;;;;;;;;50.25;39.50;;;;;14.23;76.18;101795.09;146602;569;46017;-81
2021/11/19 07:02:01;;;;;;;;;39.75;34.25;;;;;14.28;75.58;101796.25;146606;586;46020;-77
2021/11/19 07:04:36;;;;;;;;;43.75;35.25;;;;;14.32;75.18;101787.75;146602;569;47906;-77
2021/11/19 07:07:10;;;;;;;;;38.00;31.75;;;;;14.36;75.38;101780.09;146604;663;46021;-77
2021/11/19 07:09:45;;;;;;;;;48.00;37.75;;;;;14.40;75.44;101793.37;146605;598;46010;-77
2021/11/19 07:12:19;;;;;;;;;45.50;37.25;;;;;14.44;75.62;101792.72;146604;602;46020;-76
2021/11/19 07:14:54;;;;;;;;;54.00;42.25;;;;;14.49;75.19;101799.09;146603;571;46010;-77
2021/11/19 07:17:28;;;;;;;;;42.00;35.25;;;;;14.52;74.79;101801.00;146605;590;46020;-72
2021/11/19 07:20:02;;;;;;;;;45.25;35.50;;;;;14.55;74.64;101798.56;146602;622;46022;-71
2021/11/19 07:22:36;;;;;;;;;34.75;31.25;;;;;14.56;74.66;101800.34;146606;578;46010;-68
2021/11/19 07:25:13;;;;;;;;;41.00;34.25;;;;;14.59;74.25;101800.50;146603;808;47010;-70
2021/11/19 07:27:48;;;;;;;;;35.75;31.75;;;;;14.61;74.40;101806.72;146608;612;46020;-74
2021/11/19 07:30:25;;;;;;;;;33.50;30.75;;;;;14.64;74.53;101804.25;146604;591;46016;-74
2021/11/19 07:32:59;;;;;;;;;35.00;31.50;;;;;14.67;74.92;101809.63;146605;607;46020;-73
2021/11/19 07:35:33;;;;;;;;;32.25;28.50;;;;;14.68;74.84;101800.97;146600;621;46017;-71
2021/11/19 07:38:10;;;;;;;;;28.00;25.75;;;;;14.70;71.93;101807.19;146602;656;46020;-71
2021/11/19 07:40:46;;;;;;;;;30.25;28.50;;;;;13.74;71.70;101640.37;146602;635;46016;-74
2021/11/19 07:43:22;;;;;;;;;27.75;27.00;;;;;14.72;70.79;101821.19;146606;628;46020;-76
2021/11/19 07:45:56;;;;;;;;;28.75;24.75;;;;;14.72;71.69;101821.19;146603;577;47010;-71
2021/11/19 07:48:34;;;;;;;;;32.75;26.75;;;;;14.71;70.71;101821.13;146604;663;46020;-69
2021/11/19 07:51:22;;;;;;;;;38.75;34.25;;;;;14.39;69.57;101782.84;146603;642;46029;-82
2021/11/19 07:53:57;;;;;;;;;46.25;37.50;;;;;14.68;70.08;101821.84;146603;582;46020;-73
2021/11/19 07:56:33;;;;;;;;;30.75;27.75;;;;;14.68;68.73;101827.09;146599;584;46016;-72
2021/11/19 07:59:13;;;;;;;;;20.25;18.00;;;;;14.67;69.00;101826.97;146604;566;46021;-76
2021/11/19 08:01:48;;;;;;;;;16.00;16.00;;;;;14.66;68.89;101830.44;146597;569;47010;-73
2021/11/19 08:04:23;;;;;;;;;15.25;14.75;;;;;14.64;69.06;101832.03;146605;579;45020;-73
2021/11/19 08:06:57;;;;;;;;;19.25;18.75;;;;;14.60;67.40;101825.78;146603;582;46016;-71
2021/11/19 08:09:32;;;;;;;;;23.50;17.00;;;;;13.81;66.67;101702.44;146606;569;46020;-71
2021/11/19 08:12:06;;;;;;;;;17.00;15.25;;;;;14.50;66.38;101836.53;146604;632;46016;-78
2021/11/19 08:14:40;;;;;;;;;19.00;16.50;;;;;14.44;67.11;101830.97;146609;603;45021;-72
2021/11/19 08:17:29;;;;;;;;;19.25;15.75;;;;;14.40;66.52;101834.25;146600;571;47018;-72
2021/11/19 08:20:05;;;;;;;;;34.50;28.00;;;;;14.37;66.74;101839.31;146604;722;46020;-72
2021/11/19 08:22:39;;;;;;;;;21.00;17.00;;;;;14.37;66.98;101841.91;146604;586;46010;-71
2021/11/19 08:25:14;;;;;;;;;17.50;15.25;;;;;14.30;66.68;101827.63;146605;564;46020;-75
2021/11/19 08:27:56;;;;;;;;;22.25;22.00;;;;;14.39;67.20;101848.09;146604;566;46016;-76
2021/11/19 08:30:38;;;;;;;;;22.00;17.00;;;;;14.38;67.22;101843.69;146597;660;47012;-72
2021/11/19 08:33:14;;;;;;;;;19.50;17.00;;;;;14.39;67.54;101842.88;146602;597;46016;-71
2021/11/19 08:35:48;;;;;;;;;25.25;23.75;;;;;14.41;65.94;101846.47;146605;616;46020;-72
2021/11/19 08:38:26;;;;;;;;;18.50;18.50;;;;;14.41;65.48;101849.97;146602;578;46016;-72
2021/11/19 08:41:01;;;;;;;;;19.25;14.50;;;;;14.39;64.38;101840.25;146605;679;45020;-72
2021/11/19 08:43:37;;;;;;;;;16.50;14.75;;;;;14.38;65.51;101835.88;146605;573;46020;-72
2021/11/19 08:46:15;;;;;;;;;12.75;11.00;;;;;14.35;65.40;101843.53;146608;643;46020;-70
2021/11/19 08:48:51;;;;;;;;;21.00;15.50;;;;;14.37;65.72;101836.69;146606;563;45907;-76
2021/11/19 08:51:35;;;;;;;;;17.00;13.00;;;;;14.38;66.13;101841.09;146608;615;46020;-76
2021/11/19 08:54:13;;;;;;;;;21.25;17.00;;;;;14.40;65.34;101832.53;146605;565;46016;-77
2021/11/19 08:57:24;;;;;;;;;16.00;14.25;;;;;14.41;64.58;101826.47;146605;668;46010;-77
2021/11/19 08:59:58;;;;;;;;;19.50;19.25;;;;;14.43;64.56;101830.09;146601;569;46017;-76
2021/11/19 09:02:39;;;;;;;;;17.50;16.25;;;;;14.44;65.01;101820.53;146606;599;46020;-77
2021/11/19 09:05:15;;;;;;;;;22.00;18.75;;;;;14.48;64.67;101818.16;146605;754;46011;-77
2021/11/19 09:08:09;;;;;;;;;18.00;16.00;;;;;14.53;65.51;101816.72;146608;585;46021;-77
2021/11/19 09:10:44;;;;;;;;;17.25;13.25;;;;;14.57;64.87;101812.56;146600;620;46016;-78
2021/11/19 09:13:21;;;;;;;;;18.00;16.75;;;;;14.63;65.43;101812.87;146605;574;46020;-78
2021/11/19 09:23:25;;;;;;;;;19.50;17.25;;;;;14.80;64.91;101808.56;146602;580;47010;-78
2021/11/19 09:26:01;;;;;;;;;17.50;16.75;;;;;14.83;64.78;101807.78;146607;649;46008;-78
2021/11/19 09:28:38;;;;;;;;;17.75;16.75;;;;;14.86;65.60;101807.94;146604;570;46016;-76
2021/11/19 09:31:16;;;;;;;;;21.00;19.25;;;;;14.89;63.95;101806.41;146602;588;47008;-73
2021/11/19 09:33:53;;;;;;;;;19.00;16.25;;;;;14.94;65.28;101804.03;146602;660;46016;-73
2021/11/19 09:36:26;;;;;;;;;19.25;18.75;;;;;14.96;64.62;101802.41;146605;632;47008;-73
2021/11/19 09:39:00;;;;;;;;;23.75;18.75;;;;;15.00;64.81;101794.78;146607;659;46010;-73
2021/11/19 09:42:00;;;;;;;;;17.25;15.75;;;;;15.02;65.68;101798.38;146605;581;46020;-73
2021/11/19 09:45:25;;;;;;;;;27.25;21.50;;;;;14.96;65.16;101785.00;146601;583;46017;-73
2021/11/19 09:48:32;;;;;;;;;26.00;21.75;;;;;15.02;64.62;101782.69;146606;614;47008;-72
2021/11/19 09:51:48;;;;;;;;;26.50;23.50;;;;;15.06;65.22;101788.06;146604;590;46906;-73
2021/11/19 09:55:31;;;;;;;;;22.50;20.75;;;;;14.36;65.27;101640.13;146602;584;46020;-72
2021/11/19 09:58:49;;;;;;;;;16.00;14.50;;;;;15.13;64.80;101771.88;146602;582;46016;-73
2021/11/19 10:01:53;;;;;;;;;17.50;14.25;;;;;15.24;65.20;101778.53;146600;698;47020;-72
2021/11/19 10:05:04;;;;;;;;;16.00;16.00;;;;;15.24;64.83;101774.19;146599;614;46017;-73
2021/11/19 10:08:14;;;;;;;;;20.50;19.00;;;;;15.28;63.87;101770.00;146605;603;46020;-73
2021/11/19 10:11:05;;;;;;;;;17.50;16.00;;;;;15.32;63.85;101761.50;146603;594;47018;-73
2021/11/19 10:14:17;;;;;;;;;20.75;18.75;;;;;15.38;64.17;101767.00;146603;695;47008;-73
2021/11/19 10:17:42;;;;;;;;;22.00;19.00;;;;;14.84;64.52;101647.72;146603;587;46016;-73
2021/11/19 10:21:01;;;;;;;;;19.75;18.00;;;;;15.49;64.88;101746.63;146606;634;46008;-73
2021/11/19 10:23:52;;;;;;;;;16.00;15.75;;;;;15.60;64.79;101736.69;146604;597;46016;-75
2021/11/19 10:26:38;;;;;;;;;17.00;15.75;;;;;15.68;64.20;101736.25;146606;609;46008;-73
2021/11/19 10:29:32;;;;;;;;;28.50;23.50;;;;;15.74;58.55;101733.03;146603;652;46016;-72
2021/11/19 10:32:08;;;;;;;;;16.75;16.75;;;;;15.72;56.62;101723.31;146606;582;46020;-73
2021/11/19 10:35:08;;;;;;;;;17.00;14.25;;;;;15.71;61.67;101725.03;146608;660;45027;-73
2021/11/19 10:38:42;;;;;;;;;17.00;15.50;;;;;15.25;61.78;101642.72;146609;586;45021;-73
2021/11/19 10:41:54;;;;;;;;;18.25;15.00;;;;;15.77;62.81;101717.47;146604;566;46016;-73
2021/11/19 10:45:08;;;;;;;;;20.25;18.50;;;;;15.86;63.42;101715.28;146608;584;45021;-73
2021/11/19 10:48:30;;;;;;;;;21.75;17.25;;;;;15.99;63.11;101708.00;146606;563;46046;-73
2021/11/19 10:51:39;;;;;;;;;21.00;20.25;;;;;16.11;62.80;101711.16;146608;602;45021;-74
2021/11/19 10:55:16;;;;;;;;;14.75;13.75;;;;;15.11;60.99;101521.03;146605;594;46012;-74
2021/11/19 10:58:24;;;;;;;;;21.00;19.50;;;;;16.16;61.96;101699.16;146606;570;45021;-73
2021/11/19 11:01:23;;;;;;;;;19.50;17.00;;;;;15.58;61.59;101597.19;146603;654;46016;-74
2021/11/19 11:04:07;;;;;;;;;20.25;18.50;;;;;16.16;59.75;101697.44;146608;630;46008;-73
2021/11/19 11:06:56;;;;;;;;;18.50;18.00;;;;;14.33;61.29;101373.84;146606;612;46010;-73
2021/11/19 11:09:36;;;;;;;;;15.25;14.25;;;;;15.08;62.16;101517.38;146607;610;46008;-73
2021/11/19 11:13:05;;;;;;;;;20.25;16.25;;;;;15.09;61.79;101504.41;146604;664;46011;-73
2021/11/19 11:15:56;;;;;;;;;19.25;16.25;;;;;16.14;61.71;101685.13;146607;649;46020;-72
2021/11/19 11:18:37;;;;;;;;;16.00;13.50;;;;;16.14;60.19;101685.13;146604;580;46016;-73
2021/11/19 11:21:26;;;;;;;;;14.50;13.50;;;;;16.10;59.46;101673.63;146609;571;46012;-73
2021/11/19 11:24:31;;;;;;;;;13.50;13.00;;;;;16.17;62.68;101680.94;146604;708;46016;-73
2021/11/19 11:27:59;;;;;;;;;20.00;17.50;;;;;15.26;62.48;101494.69;146604;584;46020;-73
2021/11/19 11:30:58;;;;;;;;;20.00;17.00;;;;;15.73;63.14;101561.25;146603;636;46016;-75
2021/11/19 11:37:04;;;;;;;;;16.25;16.00;;;;;16.46;59.91;101675.16;146604;609;46909;-73
2021/11/19 11:40:00;;;;;;;;;16.75;12.75;;;;;16.43;62.12;101675.91;146606;581;47008;-73
2021/11/19 11:42:55;;;;;;;;;20.75;17.25;;;;;16.37;60.39;101662.56;146604;623;46017;-73
2021/11/19 11:45:46;;;;;;;;;20.25;17.25;;;;;16.30;60.22;101671.00;146605;578;47006;-73
2021/11/19 11:48:49;;;;;;;;;16.50;16.25;;;;;16.20;60.42;101668.78;146604;633;46016;-73
2021/11/19 11:52:24;;;;;;;;;20.50;19.75;;;;;15.17;61.57;101496.88;146607;711;46023;-73
2021/11/19 11:55:37;;;;;;;;;23.50;22.00;;;;;16.06;60.49;101658.62;146603;581;47907;-74
2021/11/19 11:58:20;;;;;;;;;25.50;22.75;;;;;16.02;58.80;101647.97;146604;582;47008;-73
2021/11/19 12:01:44;;;;;;;;;27.00;24.50;;;;;15.98;60.65;101653.87;146602;583;46016;-73
2021/11/19 12:05:00;;;;;;;;;26.25;25.75;;;;;15.93;59.76;101649.34;146606;618;46022;-73
2021/11/19 12:07:57;;;;;;;;;30.00;26.50;;;;;15.90;60.77;101645.69;146602;587;47010;-74
2021/11/19 12:11:18;;;;;;;;;26.00;20.25;;;;;15.93;60.71;101653.69;146605;619;46909;-74
2021/11/19 12:14:03;;;;;;;;;22.50;20.00;;;;;15.94;60.64;101648.50;146602;646;46016;-73
2021/11/19 12:17:00;;;;;;;;;25.50;21.25;;;;;15.56;60.13;101573.56;146609;595;46006;-73
2021/11/19 12:20:04;;;;;;;;;17.50;14.50;;;;;15.97;57.84;101644.25;146605;615;46010;-73
2021/11/19 12:22:50;;;;;;;;;24.25;23.00;;;;;15.93;59.36;101644.13;146606;565;46020;-73
2021/11/19 12:26:12;;;;;;;;;21.25;15.00;;;;;14.93;60.00;101473.19;146604;619;46010;-71
2021/11/19 12:28:49;;;;;;;;;23.00;20.50;;;;;15.91;58.95;101637.91;146603;579;46008;-71
2021/11/19 12:31:38;;;;;;;;;21.50;17.75;;;;;15.92;59.74;101636.22;146601;569;46016;-72
2021/11/19 12:34:43;;;;;;;;;18.50;16.50;;;;;15.96;53.97;101629.38;146607;590;46010;-74